createdAt,value
2019-04-30T00:00:01.150Z,9.80
2019-04-30T00:01:18.895Z,9.80
2019-04-30T00:02:27.734Z,6.63
2019-04-30T00:03:46.163Z,7.30
2019-04-30T00:04:51.849Z,10.60
2019-04-30T00:05:57.564Z,6.43
2019-04-30T00:07:01.112Z,9.27
2019-04-30T00:08:05.807Z,7.63
2019-04-30T00:09:15.133Z,9.53
2019-04-30T00:10:17.264Z,9.63
2019-04-30T00:11:20.988Z,8.57
2019-04-30T00:12:25.750Z,11.43
2019-04-30T00:13:29.543Z,7.43
2019-04-30T00:14:38.609Z,10.17
2019-04-30T00:15:38.779Z,8.50
2019-04-30T00:16:42.329Z,9.57
2019-04-30T00:17:48.831Z,9.80
2019-04-30T00:18:59.819Z,8.93
2019-04-30T00:19:59.842Z,6.47
2019-04-30T00:21:02.240Z,9.43
2019-04-30T00:22:05.918Z,8.13
2019-04-30T00:23:09.572Z,10.27
2019-04-30T00:24:13.202Z,6.13
2019-04-30T00:25:19.723Z,7.60
2019-04-30T00:26:22.421Z,7.50
2019-04-30T00:27:30.071Z,11.43
2019-04-30T00:28:31.547Z,7.60
2019-04-30T00:29:35.713Z,10.60
2019-04-30T00:30:43.828Z,13.43
2019-04-30T00:31:47.112Z,9.93
2019-04-30T00:32:50.935Z,14.17
2019-04-30T00:33:57.855Z,8.37
2019-04-30T00:35:00.275Z,10.17
2019-04-30T00:36:05.005Z,8.83
2019-04-30T00:37:13.815Z,4.97
2019-04-30T00:38:15.155Z,7.10
2019-04-30T00:39:19.026Z,8.13
2019-04-30T00:40:27.889Z,9.57
2019-04-30T00:41:30.182Z,9.00
2019-04-30T00:42:33.488Z,10.20
2019-04-30T00:43:37.784Z,6.70
2019-04-30T00:44:42.618Z,12.27
2019-04-30T00:45:47.545Z,7.43
2019-04-30T00:46:51.328Z,7.97
2019-04-30T00:47:55.983Z,5.57
2019-04-30T00:49:09.376Z,5.53
2019-04-30T00:50:06.900Z,11.93
2019-04-30T00:51:18.177Z,8.80
2019-04-30T00:52:15.938Z,7.90
2019-04-30T00:53:19.571Z,9.93
2019-04-30T00:54:29.372Z,7.37
2019-04-30T00:55:28.655Z,6.53
2019-04-30T00:56:32.220Z,10.20
2019-04-30T00:57:37.261Z,7.90
2019-04-30T00:58:41.592Z,9.03
2019-04-30T00:59:47.967Z,7.00
2019-04-30T01:01:06.766Z,7.60
2019-04-30T01:02:11.672Z,7.63
2019-04-30T01:03:17.566Z,7.83
2019-04-30T01:04:28.643Z,9.50
2019-04-30T01:05:32.307Z,8.33
2019-04-30T01:06:35.980Z,9.33
2019-04-30T01:07:48.116Z,9.13
2019-04-30T01:08:46.122Z,6.40
2019-04-30T01:09:50.116Z,9.10
2019-04-30T01:10:55.516Z,5.00
2019-04-30T01:11:59.298Z,5.70
2019-04-30T01:13:08.282Z,8.53
2019-04-30T01:14:09.815Z,7.57
2019-04-30T01:15:14.675Z,8.37
2019-04-30T01:16:19.548Z,8.23
2019-04-30T01:17:23.308Z,7.87
2019-04-30T01:18:28.632Z,10.40
2019-04-30T01:19:33.038Z,10.63
2019-04-30T01:20:38.596Z,6.37
2019-04-30T01:21:47.155Z,10.50
2019-04-30T01:22:48.660Z,6.73
2019-04-30T01:23:54.793Z,6.43
2019-04-30T01:25:01.306Z,6.80
2019-04-30T01:26:04.210Z,8.27
2019-04-30T01:27:10.438Z,5.90
2019-04-30T01:28:16.328Z,9.50
2019-04-30T01:29:20.524Z,8.50
2019-04-30T01:30:24.259Z,9.13
2019-04-30T01:31:31.642Z,7.73
2019-04-30T01:32:33.333Z,7.63
2019-04-30T01:33:38.896Z,5.50
2019-04-30T01:34:44.344Z,4.73
2019-04-30T01:35:48.791Z,5.87
2019-04-30T01:36:52.521Z,9.27
2019-04-30T01:37:56.149Z,10.60
2019-04-30T01:38:59.872Z,6.03
2019-04-30T01:40:10.637Z,6.30
2019-04-30T01:41:10.226Z,8.17
2019-04-30T01:42:13.925Z,8.63
2019-04-30T01:43:23.128Z,7.93
2019-04-30T01:44:22.939Z,7.33
2019-04-30T01:45:28.165Z,7.00
2019-04-30T01:46:32.012Z,9.60
2019-04-30T01:47:35.641Z,6.87
2019-04-30T01:48:39.442Z,12.47
2019-04-30T01:49:44.915Z,9.27
2019-04-30T01:50:48.872Z,6.50
2019-04-30T01:51:56.906Z,7.67
2019-04-30T01:52:59.118Z,5.67
2019-04-30T01:54:02.943Z,8.73
2019-04-30T01:55:08.471Z,5.47
2019-04-30T01:56:16.846Z,6.30
2019-04-30T01:57:22.128Z,8.67
2019-04-30T01:58:45.859Z,6.13
2019-04-30T02:00:03.074Z,6.43
2019-04-30T02:01:20.311Z,6.90
2019-04-30T02:02:25.593Z,7.37
2019-04-30T02:03:29.337Z,7.90
2019-04-30T02:04:33.036Z,8.80
2019-04-30T02:05:38.568Z,6.37
2019-04-30T02:06:42.568Z,11.97
2019-04-30T02:07:46.245Z,8.33
2019-04-30T02:08:49.900Z,10.53
2019-04-30T02:09:53.550Z,7.47
2019-04-30T02:10:59.260Z,11.57
2019-04-30T02:12:02.653Z,7.37
2019-04-30T02:13:06.346Z,10.13
2019-04-30T02:14:09.984Z,14.00
2019-04-30T02:15:13.832Z,7.43
2019-04-30T02:16:18.757Z,9.67
2019-04-30T02:17:22.862Z,8.93
2019-04-30T02:18:26.521Z,11.83
2019-04-30T02:19:31.207Z,9.93
2019-04-30T02:20:35.000Z,8.40
2019-04-30T02:21:38.693Z,8.93
2019-04-30T02:22:42.385Z,12.77
2019-04-30T02:23:46.041Z,9.73
2019-04-30T02:24:49.698Z,12.00
2019-04-30T02:25:53.353Z,13.97
2019-04-30T02:26:56.982Z,7.13
2019-04-30T02:28:00.666Z,8.47
2019-04-30T02:29:04.304Z,9.70
2019-04-30T02:30:11.107Z,11.90
2019-04-30T02:31:15.174Z,12.47
2019-04-30T02:32:20.778Z,8.97
2019-04-30T02:33:24.504Z,8.60
2019-04-30T02:34:49.800Z,6.83
2019-04-30T02:36:00.376Z,7.40
2019-04-30T02:37:09.996Z,7.07
2019-04-30T02:38:20.171Z,12.67
2019-04-30T02:39:23.316Z,21.70
2019-04-30T02:40:30.185Z,11.53
2019-04-30T02:41:34.740Z,11.97
2019-04-30T02:42:39.839Z,8.63
2019-04-30T02:43:43.968Z,9.60
2019-04-30T02:44:50.349Z,6.00
2019-04-30T02:45:55.923Z,10.53
2019-04-30T02:47:01.058Z,13.40
2019-04-30T02:48:05.886Z,5.70
2019-04-30T02:49:12.043Z,8.27
2019-04-30T02:50:19.758Z,10.07
2019-04-30T02:51:23.520Z,8.53
2019-04-30T02:52:29.388Z,6.87
2019-04-30T02:54:03.592Z,9.20
2019-04-30T02:55:10.108Z,10.70
2019-04-30T02:56:13.800Z,5.90
2019-04-30T02:57:20.428Z,9.53
2019-04-30T02:58:22.807Z,6.77
2019-04-30T02:59:26.458Z,10.77
2019-04-30T03:00:32.856Z,10.23
2019-04-30T03:01:35.479Z,11.07
2019-04-30T03:02:39.591Z,8.40
2019-04-30T03:03:43.330Z,7.30
2019-04-30T03:04:46.982Z,9.53
2019-04-30T03:05:50.623Z,8.67
2019-04-30T03:07:00.449Z,7.07
2019-04-30T03:08:04.119Z,11.23
2019-04-30T03:09:10.363Z,12.57
2019-04-30T03:10:13.768Z,11.80
2019-04-30T03:11:20.303Z,5.73
2019-04-30T03:12:22.824Z,8.77
2019-04-30T03:13:26.457Z,9.00
2019-04-30T03:14:31.357Z,7.80
2019-04-30T03:15:35.010Z,8.33
2019-04-30T03:16:55.340Z,6.73
2019-04-30T03:18:03.690Z,14.03
2019-04-30T03:19:25.002Z,12.97
2019-04-30T03:20:46.536Z,9.70
2019-04-30T03:21:51.817Z,8.23
2019-04-30T03:22:55.468Z,9.50
2019-04-30T03:24:00.577Z,7.73
2019-04-30T03:25:05.848Z,6.80
2019-04-30T03:26:12.839Z,10.63
2019-04-30T03:27:14.873Z,15.80
2019-04-30T03:28:20.172Z,14.97
2019-04-30T03:29:24.222Z,14.47
2019-04-30T03:30:31.833Z,14.70
2019-04-30T03:31:33.311Z,10.63
2019-04-30T03:32:42.281Z,13.30
2019-04-30T03:33:42.826Z,13.90
2019-04-30T03:34:51.114Z,21.57
2019-04-30T03:35:54.236Z,11.67
2019-04-30T03:37:01.644Z,13.20
2019-04-30T03:38:02.695Z,14.47
2019-04-30T03:39:10.352Z,10.23
2019-04-30T03:40:13.377Z,12.57
2019-04-30T03:41:19.747Z,12.57
2019-04-30T03:42:22.624Z,8.90
2019-04-30T03:43:26.641Z,11.33
2019-04-30T03:44:32.461Z,12.23
2019-04-30T03:45:35.715Z,14.70
2019-04-30T03:46:40.260Z,10.33
2019-04-30T03:47:44.163Z,12.07
2019-04-30T03:48:50.379Z,12.93
2019-04-30T03:49:53.572Z,12.47
2019-04-30T03:50:58.589Z,12.50
2019-04-30T03:52:02.637Z,12.93
2019-04-30T03:53:06.271Z,10.13
2019-04-30T03:54:10.492Z,14.27
2019-04-30T03:55:14.313Z,14.03
2019-04-30T03:56:20.019Z,11.63
2019-04-30T03:57:23.477Z,12.37
2019-04-30T03:58:29.223Z,11.90
2019-04-30T03:59:32.669Z,21.20
2019-04-30T04:00:50.288Z,8.90
2019-04-30T04:02:04.484Z,13.50
2019-04-30T04:03:10.167Z,15.00
2019-04-30T04:04:20.070Z,15.17
2019-04-30T04:05:24.967Z,14.07
2019-04-30T04:06:30.636Z,12.03
2019-04-30T04:07:56.237Z,13.10
2019-04-30T04:09:01.510Z,11.30
2019-04-30T04:10:10.524Z,11.73
2019-04-30T04:11:15.804Z,11.00
2019-04-30T04:12:30.537Z,10.40
2019-04-30T04:13:34.499Z,8.87
2019-04-30T04:14:39.417Z,9.40
2019-04-30T04:15:44.575Z,9.27
2019-04-30T04:16:50.965Z,24.53
2019-04-30T04:17:53.705Z,9.27
2019-04-30T04:18:59.452Z,7.47
2019-04-30T04:20:03.212Z,13.63
2019-04-30T04:21:16.044Z,9.90
2019-04-30T04:22:13.383Z,11.57
2019-04-30T04:23:19.257Z,12.00
2019-04-30T04:24:22.456Z,12.73
2019-04-30T04:25:26.086Z,9.77
2019-04-30T04:26:30.056Z,13.97
2019-04-30T04:27:33.770Z,10.47
2019-04-30T04:28:43.071Z,14.50
2019-04-30T04:29:43.283Z,11.07
2019-04-30T04:30:50.283Z,18.33
2019-04-30T04:31:52.295Z,13.17
2019-04-30T04:32:55.977Z,19.50
2019-04-30T04:34:00.208Z,14.53
2019-04-30T04:35:05.176Z,15.23
2019-04-30T04:36:09.308Z,12.60
2019-04-30T04:37:13.108Z,10.33
2019-04-30T04:38:20.646Z,15.37
2019-04-30T04:39:24.680Z,11.47
2019-04-30T04:40:30.237Z,15.87
2019-04-30T04:41:33.726Z,11.37
2019-04-30T04:42:39.622Z,13.80
2019-04-30T04:43:42.747Z,12.90
2019-04-30T04:44:46.376Z,12.80
2019-04-30T04:45:50.274Z,16.53
2019-04-30T04:46:54.499Z,12.27
2019-04-30T04:48:00.127Z,16.80
2019-04-30T04:49:03.534Z,10.70
2019-04-30T04:50:10.297Z,9.47
2019-04-30T04:51:27.669Z,14.33
2019-04-30T04:52:21.638Z,14.07
2019-04-30T04:53:24.361Z,12.83
2019-04-30T04:54:30.032Z,14.10
2019-04-30T04:55:33.425Z,12.47
2019-04-30T04:56:37.069Z,16.47
2019-04-30T04:57:40.710Z,17.13
2019-04-30T04:58:44.368Z,8.57
2019-04-30T04:59:49.957Z,16.43
2019-04-30T05:00:53.394Z,15.77
2019-04-30T05:01:57.099Z,21.77
2019-04-30T05:03:11.208Z,13.93
2019-04-30T05:04:14.842Z,15.17
2019-04-30T05:05:19.446Z,18.47
2019-04-30T05:06:23.316Z,13.73
2019-04-30T05:07:28.652Z,17.97
2019-04-30T05:08:32.413Z,12.33
2019-04-30T05:09:36.097Z,13.53
2019-04-30T05:10:39.745Z,10.73
2019-04-30T05:11:43.403Z,14.50
2019-04-30T05:12:50.578Z,8.00
2019-04-30T05:13:52.831Z,14.67
2019-04-30T05:14:56.477Z,11.17
2019-04-30T05:16:00.132Z,14.33
2019-04-30T05:17:03.805Z,13.30
2019-04-30T05:18:09.121Z,11.87
2019-04-30T05:19:12.832Z,14.90
2019-04-30T05:20:16.540Z,14.10
2019-04-30T05:21:20.231Z,10.60
2019-04-30T05:22:23.879Z,12.00
2019-04-30T05:23:29.669Z,16.20
2019-04-30T05:24:32.928Z,17.67
2019-04-30T05:25:36.581Z,17.63
2019-04-30T05:26:40.380Z,16.77
2019-04-30T05:27:44.426Z,21.83
2019-04-30T05:28:51.108Z,20.60
2019-04-30T05:29:53.567Z,20.17
2019-04-30T05:30:59.235Z,16.17
2019-04-30T05:32:02.684Z,19.13
2019-04-30T05:33:06.386Z,15.13
2019-04-30T05:34:10.376Z,14.73
2019-04-30T05:35:14.165Z,7.77
2019-04-30T05:36:19.199Z,15.87
2019-04-30T05:37:23.040Z,9.70
2019-04-30T05:38:29.020Z,12.33
2019-04-30T05:39:32.183Z,11.53
2019-04-30T05:40:35.833Z,8.70
2019-04-30T05:41:41.144Z,10.17
2019-04-30T05:42:44.909Z,9.83
2019-04-30T05:43:48.998Z,10.10
2019-04-30T05:44:52.810Z,7.23
2019-04-30T05:45:58.531Z,6.17
2019-04-30T05:47:01.812Z,16.53
2019-04-30T05:48:05.654Z,9.67
2019-04-30T05:49:12.322Z,12.23
2019-04-30T05:50:16.379Z,13.53
2019-04-30T05:51:21.296Z,11.07
2019-04-30T05:52:25.008Z,8.80
2019-04-30T05:53:28.871Z,12.93
2019-04-30T05:54:32.628Z,7.17
2019-04-30T05:55:39.548Z,10.93
2019-04-30T05:56:43.217Z,10.87
2019-04-30T05:57:53.853Z,14.37
2019-04-30T05:58:52.271Z,9.40
2019-04-30T05:59:56.120Z,9.73
2019-04-30T06:00:59.989Z,11.27
2019-04-30T06:02:03.662Z,7.20
2019-04-30T06:03:09.307Z,6.90
2019-04-30T06:04:12.768Z,14.37
2019-04-30T06:05:16.502Z,14.67
2019-04-30T06:06:20.163Z,15.47
2019-04-30T06:07:24.013Z,17.40
2019-04-30T06:08:32.788Z,10.80
2019-04-30T06:09:56.582Z,11.57
2019-04-30T06:11:01.907Z,13.17
2019-04-30T06:12:22.693Z,10.23
2019-04-30T06:13:28.725Z,12.70
2019-04-30T06:14:48.349Z,10.73
2019-04-30T06:15:48.879Z,11.57
2019-04-30T06:17:10.101Z,11.97
2019-04-30T06:18:14.130Z,16.37
2019-04-30T06:19:19.514Z,7.93
2019-04-30T06:20:23.422Z,10.37
2019-04-30T06:21:29.353Z,11.30
2019-04-30T06:22:32.919Z,10.47
2019-04-30T06:23:36.614Z,12.73
2019-04-30T06:24:40.671Z,7.43
2019-04-30T06:25:56.390Z,12.13
2019-04-30T06:26:49.838Z,7.93
2019-04-30T06:27:53.877Z,12.57
2019-04-30T06:28:59.272Z,9.93
2019-04-30T06:30:03.327Z,12.40
2019-04-30T06:31:09.017Z,11.00
2019-04-30T06:32:12.418Z,12.17
2019-04-30T06:33:16.152Z,10.87
2019-04-30T06:34:20.740Z,12.63
2019-04-30T06:35:24.811Z,12.17
2019-04-30T06:36:29.145Z,10.10
2019-04-30T06:37:32.803Z,8.33
2019-04-30T06:38:36.441Z,8.03
2019-04-30T06:39:40.122Z,10.20
2019-04-30T06:40:44.465Z,10.13
2019-04-30T06:41:49.398Z,11.70
2019-04-30T06:42:53.238Z,10.87
2019-04-30T06:43:58.661Z,10.97
2019-04-30T06:45:02.660Z,14.77
2019-04-30T06:46:06.296Z,9.73
2019-04-30T06:47:10.458Z,11.47
2019-04-30T06:48:17.043Z,10.50
2019-04-30T06:49:23.577Z,9.57
2019-04-30T06:50:29.167Z,7.23
2019-04-30T06:51:33.704Z,7.73
2019-04-30T06:52:39.015Z,7.63
2019-04-30T06:53:42.742Z,12.70
2019-04-30T06:54:46.449Z,9.93
2019-04-30T06:55:50.085Z,10.73
2019-04-30T06:56:54.119Z,8.93
2019-04-30T06:58:11.526Z,10.73
2019-04-30T06:59:09.239Z,11.27
2019-04-30T07:00:16.195Z,9.60
2019-04-30T07:01:19.871Z,8.67
2019-04-30T07:02:23.530Z,11.53
2019-04-30T07:03:28.932Z,6.73
2019-04-30T07:04:32.558Z,8.97
2019-04-30T07:05:37.070Z,7.60
2019-04-30T07:06:45.112Z,12.60
2019-04-30T07:08:09.815Z,14.10
2019-04-30T07:09:19.790Z,9.00
2019-04-30T07:10:25.057Z,10.93
2019-04-30T07:11:36.089Z,9.50
2019-04-30T07:12:49.062Z,8.97
2019-04-30T07:13:53.077Z,10.40
2019-04-30T07:14:56.745Z,12.40
2019-04-30T07:16:00.458Z,12.70
2019-04-30T07:17:04.171Z,9.93
2019-04-30T07:18:09.089Z,9.30
2019-04-30T07:19:12.877Z,10.87
2019-04-30T07:20:18.963Z,13.33
2019-04-30T07:21:21.900Z,8.27
2019-04-30T07:22:37.703Z,6.47
2019-04-30T07:23:30.930Z,13.27
2019-04-30T07:24:34.783Z,12.17
2019-04-30T07:25:41.336Z,8.67
2019-04-30T07:26:45.004Z,12.13
2019-04-30T07:27:50.585Z,8.80
2019-04-30T07:28:55.447Z,13.60
2019-04-30T07:30:01.017Z,8.50
2019-04-30T07:31:11.776Z,14.27
2019-04-30T07:32:10.200Z,8.37
2019-04-30T07:33:14.513Z,16.77
2019-04-30T07:34:19.664Z,9.93
2019-04-30T07:35:25.140Z,12.60
2019-04-30T07:36:45.212Z,9.00
2019-04-30T07:37:36.248Z,11.53
2019-04-30T07:38:45.024Z,9.97
2019-04-30T07:39:45.375Z,8.47
2019-04-30T07:40:49.376Z,8.77
2019-04-30T07:41:53.112Z,8.50
2019-04-30T07:42:58.936Z,11.00
2019-04-30T07:44:02.136Z,9.50
2019-04-30T07:45:09.680Z,11.17
2019-04-30T07:46:13.435Z,10.00
2019-04-30T07:47:19.425Z,11.10
2019-04-30T07:48:26.423Z,12.77
2019-04-30T07:49:46.201Z,6.93
2019-04-30T07:50:33.917Z,14.33
2019-04-30T07:51:41.330Z,5.67
2019-04-30T07:53:01.040Z,15.07
2019-04-30T07:53:49.588Z,16.03
2019-04-30T07:54:53.635Z,8.57
2019-04-30T07:55:58.824Z,9.73
2019-04-30T07:57:02.559Z,10.93
2019-04-30T07:58:06.225Z,11.93
2019-04-30T07:59:11.075Z,8.23
2019-04-30T08:00:15.006Z,11.90
2019-04-30T08:01:19.715Z,9.13
2019-04-30T08:02:24.582Z,11.73
2019-04-30T08:03:30.833Z,11.97
2019-04-30T08:04:51.733Z,8.50
2019-04-30T08:06:00.097Z,8.07
2019-04-30T08:07:05.284Z,9.03
2019-04-30T08:08:21.079Z,10.17
2019-04-30T08:09:14.726Z,8.20
2019-04-30T08:10:20.895Z,9.47
2019-04-30T08:11:26.484Z,9.00
2019-04-30T08:12:36.101Z,7.77
2019-04-30T08:13:37.512Z,7.60
2019-04-30T08:14:41.969Z,9.07
2019-04-30T08:15:47.068Z,8.20
2019-04-30T08:16:51.118Z,4.97
2019-04-30T08:18:03.480Z,13.33
2019-04-30T08:19:00.289Z,8.40
2019-04-30T08:20:05.486Z,7.63
2019-04-30T08:21:11.724Z,8.67
2019-04-30T08:22:15.367Z,10.77
2019-04-30T08:23:34.099Z,9.03
2019-04-30T08:24:26.578Z,10.97
2019-04-30T08:25:30.214Z,15.57
2019-04-30T08:26:33.887Z,8.53
2019-04-30T08:27:39.276Z,10.47
2019-04-30T08:28:43.393Z,8.33
2019-04-30T08:29:49.952Z,6.63
2019-04-30T08:30:53.844Z,10.10
2019-04-30T08:31:59.364Z,8.30
2019-04-30T08:33:04.451Z,10.73
2019-04-30T08:34:10.715Z,11.23
2019-04-30T08:35:13.584Z,7.83
2019-04-30T08:36:17.220Z,11.07
2019-04-30T08:37:20.906Z,6.97
2019-04-30T08:38:24.618Z,6.87
2019-04-30T08:39:29.496Z,9.60
2019-04-30T08:40:33.649Z,6.27
2019-04-30T08:41:39.189Z,8.07
2019-04-30T08:42:42.695Z,8.80
2019-04-30T08:43:46.429Z,10.73
2019-04-30T08:44:50.084Z,8.63
2019-04-30T08:45:53.738Z,5.70
2019-04-30T08:46:59.053Z,7.13
2019-04-30T08:48:02.831Z,8.43
2019-04-30T08:49:08.750Z,10.03
2019-04-30T08:50:11.976Z,10.63
2019-04-30T08:51:15.763Z,9.13
2019-04-30T08:52:20.197Z,5.33
2019-04-30T08:53:29.207Z,11.50
2019-04-30T08:54:30.054Z,7.07
2019-04-30T08:55:34.188Z,9.03
2019-04-30T08:56:38.822Z,12.33
2019-04-30T08:57:42.588Z,10.57
2019-04-30T08:58:46.219Z,8.13
2019-04-30T08:59:49.886Z,9.23
2019-04-30T09:00:53.654Z,11.57
2019-04-30T09:01:58.876Z,6.67
2019-04-30T09:03:02.698Z,9.30
2019-04-30T09:04:07.684Z,9.43
2019-04-30T09:05:18.450Z,13.93
2019-04-30T09:06:23.789Z,10.40
2019-04-30T09:07:29.670Z,6.60
2019-04-30T09:08:33.335Z,5.23
2019-04-30T09:09:38.894Z,6.80
2019-04-30T09:10:42.352Z,7.23
2019-04-30T09:11:53.012Z,9.50
2019-04-30T09:12:51.953Z,8.03
2019-04-30T09:13:55.896Z,9.03
2019-04-30T09:14:59.575Z,6.00
2019-04-30T09:16:05.313Z,9.53
2019-04-30T09:17:09.325Z,4.93
2019-04-30T09:18:13.018Z,6.47
2019-04-30T09:19:17.027Z,5.10
2019-04-30T09:20:21.802Z,12.23
2019-04-30T09:21:25.485Z,10.65
2019-04-30T09:22:29.372Z,6.85
2019-04-30T09:23:47.348Z,7.12
2019-04-30T09:24:41.061Z,8.20
2019-04-30T09:25:44.767Z,5.55
2019-04-30T09:26:49.287Z,9.23
2019-04-30T09:27:53.113Z,4.75
2019-04-30T09:28:56.765Z,7.33
2019-04-30T09:30:00.604Z,5.58
2019-04-30T09:31:04.262Z,7.37
2019-04-30T09:32:09.178Z,7.47
2019-04-30T09:33:13.265Z,4.95
2019-04-30T09:34:20.637Z,8.28
2019-04-30T09:35:23.625Z,9.15
2019-04-30T09:36:29.230Z,8.88
2019-04-30T09:37:33.144Z,6.40
2019-04-30T09:38:38.814Z,9.08
2019-04-30T09:39:43.758Z,8.10
2019-04-30T09:40:47.565Z,7.55
2019-04-30T09:41:51.335Z,5.95
2019-04-30T09:42:55.118Z,6.05
2019-04-30T09:43:59.745Z,7.67
2019-04-30T09:45:03.887Z,7.25
2019-04-30T09:46:18.704Z,7.08
2019-04-30T09:47:13.736Z,10.05
2019-04-30T09:48:19.029Z,6.83
2019-04-30T09:49:22.959Z,7.80
2019-04-30T09:50:28.651Z,9.80
2019-04-30T09:51:32.686Z,6.20
2019-04-30T09:52:39.218Z,4.87
2019-04-30T09:53:42.111Z,11.05
2019-04-30T09:54:47.184Z,6.40
2019-04-30T09:55:50.870Z,3.33
2019-04-30T09:56:54.526Z,6.07
2019-04-30T09:57:58.857Z,2.87
2019-04-30T09:59:02.621Z,5.47
2019-04-30T10:00:09.456Z,4.10
2019-04-30T10:01:13.074Z,7.60
2019-04-30T10:02:18.919Z,5.90
2019-04-30T10:03:23.040Z,1.17
2019-04-30T10:04:29.754Z,11.27
2019-04-30T10:05:32.491Z,4.60
2019-04-30T10:06:40.009Z,7.20
2019-04-30T10:07:41.621Z,17.20
2019-04-30T10:08:48.645Z,12.50
2019-04-30T10:09:51.039Z,9.07
2019-04-30T10:11:12.802Z,14.67
2019-04-30T10:12:19.681Z,12.23
2019-04-30T10:13:23.518Z,13.10
2019-04-30T10:14:28.862Z,6.73
2019-04-30T10:15:37.322Z,5.60
2019-04-30T10:16:54.541Z,9.37
2019-04-30T10:17:58.552Z,4.00
2019-04-30T10:19:02.189Z,7.03
2019-04-30T10:20:11.485Z,5.17
2019-04-30T10:21:15.743Z,4.17
2019-04-30T10:22:19.478Z,6.77
2019-04-30T10:23:23.281Z,6.93
2019-04-30T10:24:29.345Z,5.53
2019-04-30T10:25:32.721Z,3.03
2019-04-30T10:26:37.372Z,9.33
2019-04-30T10:27:41.061Z,5.57
2019-04-30T10:28:46.395Z,5.93
2019-04-30T10:29:50.228Z,6.60
2019-04-30T10:30:53.952Z,4.37
2019-04-30T10:31:58.770Z,3.23
2019-04-30T10:33:02.972Z,3.43
2019-04-30T10:34:06.618Z,5.47
2019-04-30T10:35:10.294Z,4.90
2019-04-30T10:36:14.073Z,4.47
2019-04-30T10:37:18.898Z,4.57
2019-04-30T10:38:22.814Z,3.47
2019-04-30T10:39:29.660Z,3.23
2019-04-30T10:40:32.846Z,4.40
2019-04-30T10:41:36.656Z,5.83
2019-04-30T10:42:40.295Z,5.60
2019-04-30T10:43:43.974Z,12.70
2019-04-30T10:44:47.609Z,6.90
2019-04-30T10:45:51.815Z,9.03
2019-04-30T10:46:55.768Z,3.70
2019-04-30T10:47:59.460Z,7.83
2019-04-30T10:49:03.193Z,7.27
2019-04-30T10:50:10.260Z,5.00
2019-04-30T10:51:13.926Z,3.43
2019-04-30T10:52:19.185Z,4.00
2019-04-30T10:53:23.108Z,4.03
2019-04-30T10:54:28.897Z,4.17
2019-04-30T10:55:32.228Z,5.07
2019-04-30T10:56:36.338Z,4.43
2019-04-30T10:57:39.975Z,2.40
2019-04-30T10:58:43.710Z,3.80
2019-04-30T10:59:50.526Z,3.87
2019-04-30T11:00:54.181Z,5.43
2019-04-30T11:01:59.210Z,3.17
2019-04-30T11:03:03.076Z,3.03
2019-04-30T11:04:07.774Z,3.20
2019-04-30T11:05:12.184Z,3.70
2019-04-30T11:06:16.126Z,7.60
2019-04-30T11:07:19.852Z,4.22
2019-04-30T11:08:23.623Z,2.03
2019-04-30T11:09:30.699Z,1.80
2019-04-30T11:10:35.035Z,2.53
2019-04-30T11:11:39.742Z,2.23
2019-04-30T11:12:43.831Z,3.80
2019-04-30T11:13:47.463Z,6.72
2019-04-30T11:14:51.116Z,3.93
2019-04-30T11:15:54.762Z,2.63
2019-04-30T11:17:02.078Z,1.70
2019-04-30T11:18:06.101Z,3.00
2019-04-30T11:19:10.106Z,2.37
2019-04-30T11:20:15.179Z,3.50
2019-04-30T11:21:19.744Z,4.20
2019-04-30T11:22:23.889Z,2.10
2019-04-30T11:23:29.592Z,2.12
2019-04-30T11:24:37.890Z,1.65
2019-04-30T11:25:41.265Z,2.83
2019-04-30T11:26:44.848Z,2.72
2019-04-30T11:27:50.553Z,2.90
2019-04-30T11:28:54.730Z,2.70
2019-04-30T11:30:03.587Z,3.35
2019-04-30T11:31:14.962Z,3.10
2019-04-30T11:32:20.677Z,3.10
2019-04-30T11:33:24.762Z,3.92
2019-04-30T11:34:28.512Z,3.77
2019-04-30T11:35:32.176Z,3.15
2019-04-30T11:36:35.889Z,2.85
2019-04-30T11:37:39.517Z,8.05
2019-04-30T11:38:43.152Z,2.15
2019-04-30T11:39:46.899Z,3.42
2019-04-30T11:40:50.526Z,3.60
2019-04-30T11:41:54.222Z,2.55
2019-04-30T11:42:57.867Z,2.98
2019-04-30T11:44:01.490Z,5.58
2019-04-30T11:45:09.503Z,2.05
2019-04-30T11:46:24.965Z,3.90
2019-04-30T11:47:30.297Z,5.20
2019-04-30T11:48:33.943Z,4.92
2019-04-30T11:49:37.653Z,4.35
2019-04-30T11:50:41.385Z,2.20
2019-04-30T11:51:45.079Z,1.75
2019-04-30T11:52:48.767Z,6.33
2019-04-30T11:53:52.466Z,3.17
2019-04-30T11:54:56.580Z,3.98
2019-04-30T11:56:00.218Z,2.85
2019-04-30T11:57:03.849Z,1.77
2019-04-30T11:58:20.730Z,1.85
2019-04-30T11:59:13.347Z,2.25
2019-04-30T12:00:19.011Z,2.02
2019-04-30T12:01:27.359Z,3.55
2019-04-30T12:02:35.739Z,1.95
2019-04-30T12:03:39.489Z,4.07
2019-04-30T12:04:43.108Z,3.15
2019-04-30T12:05:48.833Z,3.02
2019-04-30T12:06:53.503Z,2.75
2019-04-30T12:07:59.741Z,3.15
2019-04-30T12:09:09.134Z,4.12
2019-04-30T12:10:14.726Z,3.85
2019-04-30T12:11:20.016Z,4.22
2019-04-30T12:12:24.660Z,4.92
2019-04-30T12:13:29.944Z,4.30
2019-04-30T12:14:33.585Z,2.05
2019-04-30T12:15:37.247Z,3.22
2019-04-30T12:16:40.883Z,2.80
2019-04-30T12:17:44.600Z,3.67
2019-04-30T12:18:48.252Z,1.85
2019-04-30T12:19:51.947Z,2.65
2019-04-30T12:20:55.612Z,2.22
2019-04-30T12:21:59.265Z,1.95
2019-04-30T12:23:03.230Z,3.80
2019-04-30T12:24:07.821Z,1.72
2019-04-30T12:25:11.758Z,3.60
2019-04-30T12:26:15.467Z,3.55
2019-04-30T12:27:19.209Z,5.10
2019-04-30T12:28:22.858Z,1.45
2019-04-30T12:29:26.494Z,2.10
2019-04-30T12:30:30.232Z,2.95
2019-04-30T12:31:33.881Z,8.50
2019-04-30T12:32:39.178Z,7.17
2019-04-30T12:33:43.049Z,2.80
2019-04-30T12:34:46.795Z,2.10
2019-04-30T12:35:51.326Z,5.55
2019-04-30T12:36:55.188Z,5.35
2019-04-30T12:37:58.929Z,1.30
2019-04-30T12:39:02.703Z,2.25
2019-04-30T12:40:10.797Z,3.20
2019-04-30T12:41:13.879Z,6.22
2019-04-30T12:42:18.838Z,5.08
2019-04-30T12:43:22.746Z,2.22
2019-04-30T12:44:26.394Z,2.95
2019-04-30T12:45:30.189Z,3.83
2019-04-30T12:46:33.861Z,3.42
2019-04-30T12:47:39.169Z,1.25
2019-04-30T12:48:50.478Z,1.85
2019-04-30T12:50:12.255Z,5.05
2019-04-30T12:51:23.546Z,3.58
2019-04-30T12:52:31.872Z,3.62
2019-04-30T12:53:43.174Z,2.20
2019-04-30T12:54:57.127Z,4.58
2019-04-30T12:56:05.398Z,2.85
2019-04-30T12:57:11.161Z,2.20
2019-04-30T12:58:15.017Z,3.60
2019-04-30T12:59:18.641Z,3.70
2019-04-30T13:00:22.506Z,3.67
2019-04-30T13:01:26.306Z,3.03
2019-04-30T13:02:29.954Z,3.23
2019-04-30T13:03:33.596Z,2.43
2019-04-30T13:04:39.236Z,4.50
2019-04-30T13:05:42.877Z,3.43
2019-04-30T13:06:48.705Z,2.93
2019-04-30T13:07:52.806Z,1.67
2019-04-30T13:08:59.838Z,2.00
2019-04-30T13:10:03.130Z,4.07
2019-04-30T13:11:10.220Z,3.83
2019-04-30T13:12:13.336Z,2.13
2019-04-30T13:13:17.951Z,2.47
2019-04-30T13:14:22.380Z,3.80
2019-04-30T13:15:26.607Z,2.70
2019-04-30T13:16:30.238Z,1.73
2019-04-30T13:17:34.624Z,5.47
2019-04-30T13:18:39.397Z,3.43
2019-04-30T13:19:43.192Z,5.30
2019-04-30T13:20:48.971Z,4.43
2019-04-30T13:21:52.764Z,2.77
2019-04-30T13:22:58.762Z,3.87
2019-04-30T13:24:02.135Z,3.52
2019-04-30T13:25:06.804Z,4.35
2019-04-30T13:26:10.595Z,3.30
2019-04-30T13:27:14.393Z,3.15
2019-04-30T13:28:19.690Z,3.47
2019-04-30T13:29:39.922Z,3.27
2019-04-30T13:30:43.693Z,3.90
2019-04-30T13:31:50.092Z,2.85
2019-04-30T13:32:59.287Z,2.25
2019-04-30T13:34:08.507Z,2.67
2019-04-30T13:35:12.586Z,3.47
2019-04-30T13:36:16.352Z,5.17
2019-04-30T13:37:20.090Z,1.87
2019-04-30T13:38:49.151Z,1.90
2019-04-30T13:39:53.998Z,2.87
2019-04-30T13:41:11.465Z,3.77
2019-04-30T13:42:18.601Z,3.65
2019-04-30T13:43:29.880Z,3.22
2019-04-30T13:44:35.290Z,3.10
2019-04-30T13:45:38.928Z,3.72
2019-04-30T13:46:42.676Z,3.47
2019-04-30T13:47:46.320Z,1.40
2019-04-30T13:48:50.184Z,1.32
2019-04-30T13:49:53.985Z,3.10
2019-04-30T13:50:57.640Z,2.33
2019-04-30T13:52:01.339Z,2.37
2019-04-30T13:53:05.228Z,3.98
2019-04-30T13:54:08.920Z,3.80
2019-04-30T13:55:12.864Z,2.58
2019-04-30T13:56:20.050Z,2.05
2019-04-30T13:57:21.893Z,3.02
2019-04-30T13:58:26.104Z,2.25
2019-04-30T13:59:29.915Z,1.85
2019-04-30T14:00:33.762Z,2.42
2019-04-30T14:01:39.091Z,1.15
2019-04-30T14:02:50.264Z,1.57
2019-04-30T14:03:59.044Z,0.95
2019-04-30T14:05:16.593Z,2.92
2019-04-30T14:06:24.700Z,1.27
2019-04-30T14:07:30.016Z,3.72
2019-04-30T14:08:41.292Z,1.27
2019-04-30T14:09:44.927Z,3.60
2019-04-30T14:10:49.319Z,2.25
2019-04-30T14:11:53.530Z,2.30
2019-04-30T14:12:58.818Z,1.98
2019-04-30T14:14:02.452Z,1.90
2019-04-30T14:15:09.312Z,2.50
2019-04-30T14:16:13.499Z,2.15
2019-04-30T14:17:19.025Z,3.33
2019-04-30T14:18:30.756Z,1.65
2019-04-30T14:19:29.517Z,3.33